sensor_id;sensor_type;location;lat;lon;timestamp;P1;durP1;ratioP1;P2;durP2;ratioP2
30287;SDS011;17103;48.316;11.558;2023-03-01T00:01:25;13.57;;;9.25;;
30287;SDS011;17103;48.316;11.558;2023-03-01T00:03:53;14.93;;;9.52;;
30287;SDS011;17103;48.316;11.558;2023-03-01T00:06:21;16.13;;;9.65;;
30287;SDS011;17103;48.316;11.558;2023-03-01T00:08:47;15.30;;;9.30;;
30287;SDS011;17103;48.316;11.558;2023-03-01T00:11:20;15.15;;;9.48;;
30287;SDS011;17103;48.316;11.558;2023-03-01T00:13:47;13.60;;;9.27;;
30287;SDS011;17103;48.316;11.558;2023-03-01T00:16:16;12.65;;;9.35;;
30287;SDS011;17103;48.316;11.558;2023-03-01T00:18:51;14.65;;;10.07;;
30287;SDS011;17103;48.316;11.558;2023-03-01T00:21:18;15.43;;;8.95;;
30287;SDS011;17103;48.316;11.558;2023-03-01T00:23:45;15.38;;;9.75;;
30287;SDS011;17103;48.316;11.558;2023-03-01T00:26:12;13.77;;;9.38;;
30287;SDS011;17103;48.316;11.558;2023-03-01T00:28:39;14.23;;;10.68;;
30287;SDS011;17103;48.316;11.558;2023-03-01T00:31:08;17.63;;;9.48;;
30287;SDS011;17103;48.316;11.558;2023-03-01T00:33:36;12.77;;;9.15;;
30287;SDS011;17103;48.316;11.558;2023-03-01T00:36:02;12.73;;;8.85;;
30287;SDS011;17103;48.316;11.558;2023-03-01T00:38:29;14.02;;;9.90;;
30287;SDS011;17103;48.316;11.558;2023-03-01T00:40:55;17.77;;;9.48;;
30287;SDS011;17103;48.316;11.558;2023-03-01T00:43:27;14.75;;;9.65;;
30287;SDS011;17103;48.316;11.558;2023-03-01T00:45:53;12.18;;;8.07;;
30287;SDS011;17103;48.316;11.558;2023-03-01T00:48:18;14.85;;;9.85;;
30287;SDS011;17103;48.316;11.558;2023-03-01T00:50:44;12.15;;;8.25;;
30287;SDS011;17103;48.316;11.558;2023-03-01T00:53:09;11.98;;;8.70;;
30287;SDS011;17103;48.316;11.558;2023-03-01T00:55:36;14.10;;;9.40;;
30287;SDS011;17103;48.316;11.558;2023-03-01T00:58:02;13.88;;;9.27;;
30287;SDS011;17103;48.316;11.558;2023-03-01T01:00:27;11.73;;;7.72;;
30287;SDS011;17103;48.316;11.558;2023-03-01T01:02:53;15.02;;;9.77;;
30287;SDS011;17103;48.316;11.558;2023-03-01T01:05:19;14.68;;;8.32;;
30287;SDS011;17103;48.316;11.558;2023-03-01T01:07:47;12.52;;;9.50;;
30287;SDS011;17103;48.316;11.558;2023-03-01T01:10:13;13.75;;;9.43;;
30287;SDS011;17103;48.316;11.558;2023-03-01T01:12:42;12.05;;;8.48;;
30287;SDS011;17103;48.316;11.558;2023-03-01T01:15:09;12.05;;;8.77;;
30287;SDS011;17103;48.316;11.558;2023-03-01T01:17:38;15.40;;;10.23;;
30287;SDS011;17103;48.316;11.558;2023-03-01T01:20:03;12.88;;;8.57;;
30287;SDS011;17103;48.316;11.558;2023-03-01T01:22:29;14.02;;;9.55;;
30287;SDS011;17103;48.316;11.558;2023-03-01T01:24:55;14.25;;;9.40;;
30287;SDS011;17103;48.316;11.558;2023-03-01T01:27:21;14.45;;;10.43;;
30287;SDS011;17103;48.316;11.558;2023-03-01T01:29:46;7.80;;;5.03;;
30287;SDS011;17103;48.316;11.558;2023-03-01T01:32:12;8.35;;;4.63;;
30287;SDS011;17103;48.316;11.558;2023-03-01T01:34:39;9.00;;;5.68;;
30287;SDS011;17103;48.316;11.558;2023-03-01T01:37:04;10.18;;;6.45;;
30287;SDS011;17103;48.316;11.558;2023-03-01T01:39:33;9.75;;;7.13;;
30287;SDS011;17103;48.316;11.558;2023-03-01T01:41:59;10.88;;;6.90;;
30287;SDS011;17103;48.316;11.558;2023-03-01T01:44:26;10.10;;;7.10;;
30287;SDS011;17103;48.316;11.558;2023-03-01T01:49:37;10.02;;;7.05;;
30287;SDS011;17103;48.316;11.558;2023-03-01T01:54:38;11.90;;;8.00;;
30287;SDS011;17103;48.316;11.558;2023-03-01T01:57:29;12.48;;;8.25;;
30287;SDS011;17103;48.316;11.558;2023-03-01T02:00:07;11.55;;;7.25;;
30287;SDS011;17103;48.316;11.558;2023-03-01T02:02:42;12.52;;;7.25;;
30287;SDS011;17103;48.316;11.558;2023-03-01T02:07:47;12.25;;;7.47;;
30287;SDS011;17103;48.316;11.558;2023-03-01T02:10:14;10.18;;;7.50;;
30287;SDS011;17103;48.316;11.558;2023-03-01T02:12:40;9.80;;;7.45;;
30287;SDS011;17103;48.316;11.558;2023-03-01T02:15:07;11.75;;;7.22;;
30287;SDS011;17103;48.316;11.558;2023-03-01T02:17:33;11.18;;;8.60;;
30287;SDS011;17103;48.316;11.558;2023-03-01T02:22:46;10.43;;;7.63;;
30287;SDS011;17103;48.316;11.558;2023-03-01T02:30:41;8.90;;;6.75;;
30287;SDS011;17103;48.316;11.558;2023-03-01T02:33:28;9.45;;;6.00;;
30287;SDS011;17103;48.316;11.558;2023-03-01T02:35:58;10.00;;;7.13;;
30287;SDS011;17103;48.316;11.558;2023-03-01T02:38:27;10.57;;;7.50;;
30287;SDS011;17103;48.316;11.558;2023-03-01T02:40:53;10.75;;;6.93;;
30287;SDS011;17103;48.316;11.558;2023-03-01T02:43:22;9.63;;;7.30;;
30287;SDS011;17103;48.316;11.558;2023-03-01T02:45:52;11.82;;;7.82;;
30287;SDS011;17103;48.316;11.558;2023-03-01T02:48:25;8.60;;;6.25;;
30287;SDS011;17103;48.316;11.558;2023-03-01T02:50:52;9.82;;;6.70;;
30287;SDS011;17103;48.316;11.558;2023-03-01T02:56:11;8.68;;;7.18;;
30287;SDS011;17103;48.316;11.558;2023-03-01T02:58:44;10.60;;;7.55;;
30287;SDS011;17103;48.316;11.558;2023-03-01T03:01:13;8.65;;;6.70;;
30287;SDS011;17103;48.316;11.558;2023-03-01T03:03:40;8.95;;;6.78;;
30287;SDS011;17103;48.316;11.558;2023-03-01T03:06:06;9.25;;;7.43;;
30287;SDS011;17103;48.316;11.558;2023-03-01T03:08:32;11.75;;;8.68;;
30287;SDS011;17103;48.316;11.558;2023-03-01T03:10:58;9.60;;;7.38;;
30287;SDS011;17103;48.316;11.558;2023-03-01T03:13:23;10.02;;;7.10;;
30287;SDS011;17103;48.316;11.558;2023-03-01T03:15:53;9.70;;;8.07;;
30287;SDS011;17103;48.316;11.558;2023-03-01T03:18:27;9.40;;;6.90;;
30287;SDS011;17103;48.316;11.558;2023-03-01T03:20:53;11.52;;;8.38;;
30287;SDS011;17103;48.316;11.558;2023-03-01T03:23:19;9.98;;;6.68;;
30287;SDS011;17103;48.316;11.558;2023-03-01T03:25:47;11.57;;;7.43;;
30287;SDS011;17103;48.316;11.558;2023-03-01T03:28:14;11.65;;;8.30;;
30287;SDS011;17103;48.316;11.558;2023-03-01T03:30:41;9.57;;;7.72;;
30287;SDS011;17103;48.316;11.558;2023-03-01T03:33:07;8.52;;;6.95;;
30287;SDS011;17103;48.316;11.558;2023-03-01T03:35:37;14.95;;;7.70;;
30287;SDS011;17103;48.316;11.558;2023-03-01T03:38:06;11.57;;;7.45;;
30287;SDS011;17103;48.316;11.558;2023-03-01T03:40:41;11.07;;;7.13;;
30287;SDS011;17103;48.316;11.558;2023-03-01T03:43:09;9.73;;;7.18;;
30287;SDS011;17103;48.316;11.558;2023-03-01T03:45:37;10.40;;;7.40;;
30287;SDS011;17103;48.316;11.558;2023-03-01T03:48:04;14.95;;;8.93;;
30287;SDS011;17103;48.316;11.558;2023-03-01T03:50:31;10.43;;;7.65;;
30287;SDS011;17103;48.316;11.558;2023-03-01T03:52:59;11.30;;;6.97;;
30287;SDS011;17103;48.316;11.558;2023-03-01T03:55:25;8.20;;;7.30;;
30287;SDS011;17103;48.316;11.558;2023-03-01T03:57:55;9.52;;;7.63;;
30287;SDS011;17103;48.316;11.558;2023-03-01T04:00:23;11.95;;;9.13;;
30287;SDS011;17103;48.316;11.558;2023-03-01T04:02:49;10.00;;;7.72;;
30287;SDS011;17103;48.316;11.558;2023-03-01T04:05:16;12.68;;;8.25;;
30287;SDS011;17103;48.316;11.558;2023-03-01T04:07:44;11.27;;;7.90;;
30287;SDS011;17103;48.316;11.558;2023-03-01T04:10:15;13.57;;;8.13;;
30287;SDS011;17103;48.316;11.558;2023-03-01T04:12:42;10.23;;;8.10;;
30287;SDS011;17103;48.316;11.558;2023-03-01T04:15:08;11.23;;;8.13;;
30287;SDS011;17103;48.316;11.558;2023-03-01T04:17:45;12.27;;;7.85;;
30287;SDS011;17103;48.316;11.558;2023-03-01T04:20:15;11.25;;;8.85;;
30287;SDS011;17103;48.316;11.558;2023-03-01T04:22:43;12.50;;;8.75;;
30287;SDS011;17103;48.316;11.558;2023-03-01T04:25:13;12.57;;;8.20;;
30287;SDS011;17103;48.316;11.558;2023-03-01T04:27:39;10.43;;;8.27;;
30287;SDS011;17103;48.316;11.558;2023-03-01T04:30:06;10.60;;;7.95;;
30287;SDS011;17103;48.316;11.558;2023-03-01T04:32:32;11.95;;;8.45;;
30287;SDS011;17103;48.316;11.558;2023-03-01T04:34:58;12.57;;;7.95;;
30287;SDS011;17103;48.316;11.558;2023-03-01T04:37:23;17.65;;;8.82;;
30287;SDS011;17103;48.316;11.558;2023-03-01T04:39:50;13.50;;;8.77;;
30287;SDS011;17103;48.316;11.558;2023-03-01T04:42:16;12.40;;;9.38;;
30287;SDS011;17103;48.316;11.558;2023-03-01T04:44:42;12.05;;;9.30;;
30287;SDS011;17103;48.316;11.558;2023-03-01T04:47:08;14.40;;;10.45;;
30287;SDS011;17103;48.316;11.558;2023-03-01T04:49:34;17.10;;;10.95;;
30287;SDS011;17103;48.316;11.558;2023-03-01T04:51:59;15.75;;;10.57;;
30287;SDS011;17103;48.316;11.558;2023-03-01T04:54:33;15.48;;;10.25;;
30287;SDS011;17103;48.316;11.558;2023-03-01T04:59:26;15.18;;;8.93;;
30287;SDS011;17103;48.316;11.558;2023-03-01T05:01:52;11.38;;;8.63;;
30287;SDS011;17103;48.316;11.558;2023-03-01T05:04:22;13.45;;;9.82;;
30287;SDS011;17103;48.316;11.558;2023-03-01T05:06:49;12.73;;;9.93;;
30287;SDS011;17103;48.316;11.558;2023-03-01T05:09:15;12.52;;;8.82;;
30287;SDS011;17103;48.316;11.558;2023-03-01T05:11:41;13.80;;;9.38;;
30287;SDS011;17103;48.316;11.558;2023-03-01T05:14:07;13.38;;;9.40;;
30287;SDS011;17103;48.316;11.558;2023-03-01T05:16:34;18.13;;;9.85;;
30287;SDS011;17103;48.316;11.558;2023-03-01T05:19:01;17.08;;;10.50;;
30287;SDS011;17103;48.316;11.558;2023-03-01T05:21:36;13.55;;;9.00;;
30287;SDS011;17103;48.316;11.558;2023-03-01T05:24:23;15.07;;;10.30;;
30287;SDS011;17103;48.316;11.558;2023-03-01T05:26:49;14.02;;;10.13;;
30287;SDS011;17103;48.316;11.558;2023-03-01T05:29:17;15.77;;;10.65;;
30287;SDS011;17103;48.316;11.558;2023-03-01T05:31:59;15.05;;;10.95;;
30287;SDS011;17103;48.316;11.558;2023-03-01T05:34:29;13.93;;;9.68;;
30287;SDS011;17103;48.316;11.558;2023-03-01T05:36:57;16.50;;;9.65;;
30287;SDS011;17103;48.316;11.558;2023-03-01T05:39:24;13.68;;;10.63;;
30287;SDS011;17103;48.316;11.558;2023-03-01T05:41:57;15.00;;;10.18;;
30287;SDS011;17103;48.316;11.558;2023-03-01T05:44:24;17.25;;;9.85;;
30287;SDS011;17103;48.316;11.558;2023-03-01T05:46:51;15.63;;;9.55;;
30287;SDS011;17103;48.316;11.558;2023-03-01T05:49:17;16.65;;;10.30;;
30287;SDS011;17103;48.316;11.558;2023-03-01T05:51:45;14.98;;;9.63;;
30287;SDS011;17103;48.316;11.558;2023-03-01T05:54:13;12.63;;;9.38;;
30287;SDS011;17103;48.316;11.558;2023-03-01T05:56:38;14.35;;;9.57;;
30287;SDS011;17103;48.316;11.558;2023-03-01T05:59:04;15.40;;;10.82;;
30287;SDS011;17103;48.316;11.558;2023-03-01T06:01:32;15.02;;;10.57;;
30287;SDS011;17103;48.316;11.558;2023-03-01T06:03:58;16.30;;;10.05;;
30287;SDS011;17103;48.316;11.558;2023-03-01T06:06:23;15.68;;;9.73;;
30287;SDS011;17103;48.316;11.558;2023-03-01T06:08:49;16.67;;;10.30;;
30287;SDS011;17103;48.316;11.558;2023-03-01T06:11:16;16.15;;;10.18;;
30287;SDS011;17103;48.316;11.558;2023-03-01T06:13:42;13.88;;;10.20;;
30287;SDS011;17103;48.316;11.558;2023-03-01T06:16:08;16.50;;;11.07;;
30287;SDS011;17103;48.316;11.558;2023-03-01T06:18:34;15.98;;;9.82;;
30287;SDS011;17103;48.316;11.558;2023-03-01T06:21:00;14.75;;;9.68;;
30287;SDS011;17103;48.316;11.558;2023-03-01T06:23:26;14.75;;;10.45;;
30287;SDS011;17103;48.316;11.558;2023-03-01T06:25:52;16.40;;;11.18;;
30287;SDS011;17103;48.316;11.558;2023-03-01T06:28:17;15.35;;;10.10;;
30287;SDS011;17103;48.316;11.558;2023-03-01T06:30:43;16.63;;;10.88;;
30287;SDS011;17103;48.316;11.558;2023-03-01T06:33:09;18.27;;;10.30;;
30287;SDS011;17103;48.316;11.558;2023-03-01T06:35:34;16.73;;;11.32;;
30287;SDS011;17103;48.316;11.558;2023-03-01T06:38:01;15.77;;;10.18;;
30287;SDS011;17103;48.316;11.558;2023-03-01T06:40:28;18.17;;;10.45;;
30287;SDS011;17103;48.316;11.558;2023-03-01T06:42:54;20.25;;;10.45;;
30287;SDS011;17103;48.316;11.558;2023-03-01T06:45:21;17.42;;;9.80;;
30287;SDS011;17103;48.316;11.558;2023-03-01T06:47:47;15.43;;;10.05;;
30287;SDS011;17103;48.316;11.558;2023-03-01T06:50:13;16.13;;;9.63;;
30287;SDS011;17103;48.316;11.558;2023-03-01T06:52:41;15.15;;;10.05;;
30287;SDS011;17103;48.316;11.558;2023-03-01T06:55:08;21.10;;;10.50;;
30287;SDS011;17103;48.316;11.558;2023-03-01T06:57:34;17.45;;;10.38;;
30287;SDS011;17103;48.316;11.558;2023-03-01T07:00:00;18.20;;;11.85;;
30287;SDS011;17103;48.316;11.558;2023-03-01T07:02:25;18.33;;;11.20;;
30287;SDS011;17103;48.316;11.558;2023-03-01T07:04:53;15.15;;;9.60;;
30287;SDS011;17103;48.316;11.558;2023-03-01T07:07:19;14.57;;;9.55;;
30287;SDS011;17103;48.316;11.558;2023-03-01T07:09:45;18.65;;;11.48;;
30287;SDS011;17103;48.316;11.558;2023-03-01T07:12:11;16.67;;;10.77;;
30287;SDS011;17103;48.316;11.558;2023-03-01T07:14:36;20.60;;;10.95;;
30287;SDS011;17103;48.316;11.558;2023-03-01T07:17:02;14.40;;;10.48;;
30287;SDS011;17103;48.316;11.558;2023-03-01T07:19:28;17.63;;;10.70;;
30287;SDS011;17103;48.316;11.558;2023-03-01T07:21:54;19.60;;;11.73;;
30287;SDS011;17103;48.316;11.558;2023-03-01T07:24:20;17.92;;;10.90;;
30287;SDS011;17103;48.316;11.558;2023-03-01T07:26:51;18.25;;;10.18;;
30287;SDS011;17103;48.316;11.558;2023-03-01T07:29:18;19.58;;;10.82;;
30287;SDS011;17103;48.316;11.558;2023-03-01T07:31:44;16.17;;;10.13;;
30287;SDS011;17103;48.316;11.558;2023-03-01T07:34:11;20.85;;;11.65;;
30287;SDS011;17103;48.316;11.558;2023-03-01T07:36:37;16.25;;;10.73;;
30287;SDS011;17103;48.316;11.558;2023-03-01T07:39:04;14.32;;;9.85;;
30287;SDS011;17103;48.316;11.558;2023-03-01T07:41:31;14.88;;;10.05;;
30287;SDS011;17103;48.316;11.558;2023-03-01T07:43:56;14.57;;;10.52;;
30287;SDS011;17103;48.316;11.558;2023-03-01T07:46:22;17.55;;;10.65;;
30287;SDS011;17103;48.316;11.558;2023-03-01T07:48:47;16.65;;;11.35;;
30287;SDS011;17103;48.316;11.558;2023-03-01T07:51:13;18.40;;;10.80;;
30287;SDS011;17103;48.316;11.558;2023-03-01T07:53:39;17.55;;;10.93;;
30287;SDS011;17103;48.316;11.558;2023-03-01T07:56:07;18.70;;;11.93;;
30287;SDS011;17103;48.316;11.558;2023-03-01T07:58:38;16.15;;;10.52;;
30287;SDS011;17103;48.316;11.558;2023-03-01T08:01:05;16.92;;;10.55;;
30287;SDS011;17103;48.316;11.558;2023-03-01T08:03:33;18.83;;;11.75;;
30287;SDS011;17103;48.316;11.558;2023-03-01T08:06:00;20.83;;;12.98;;
30287;SDS011;17103;48.316;11.558;2023-03-01T08:08:27;19.40;;;11.00;;
30287;SDS011;17103;48.316;11.558;2023-03-01T08:10:55;17.65;;;12.38;;
30287;SDS011;17103;48.316;11.558;2023-03-01T08:13:28;21.73;;;11.80;;
30287;SDS011;17103;48.316;11.558;2023-03-01T08:16:00;20.27;;;12.75;;
30287;SDS011;17103;48.316;11.558;2023-03-01T08:18:27;16.05;;;10.55;;
30287;SDS011;17103;48.316;11.558;2023-03-01T08:20:52;20.92;;;11.90;;
30287;SDS011;17103;48.316;11.558;2023-03-01T08:23:18;20.17;;;11.93;;
30287;SDS011;17103;48.316;11.558;2023-03-01T08:25:43;20.65;;;11.82;;
30287;SDS011;17103;48.316;11.558;2023-03-01T08:28:09;16.70;;;10.95;;
30287;SDS011;17103;48.316;11.558;2023-03-01T08:30:35;19.17;;;11.00;;
30287;SDS011;17103;48.316;11.558;2023-03-01T08:33:00;17.98;;;11.38;;
30287;SDS011;17103;48.316;11.558;2023-03-01T08:35:26;18.75;;;11.25;;
30287;SDS011;17103;48.316;11.558;2023-03-01T08:37:52;19.38;;;12.07;;
30287;SDS011;17103;48.316;11.558;2023-03-01T08:40:17;19.58;;;11.63;;
30287;SDS011;17103;48.316;11.558;2023-03-01T08:42:43;14.73;;;11.13;;
30287;SDS011;17103;48.316;11.558;2023-03-01T08:45:09;20.45;;;12.18;;
30287;SDS011;17103;48.316;11.558;2023-03-01T08:47:35;19.42;;;11.77;;
30287;SDS011;17103;48.316;11.558;2023-03-01T08:50:01;22.77;;;11.38;;
30287;SDS011;17103;48.316;11.558;2023-03-01T08:52:27;17.98;;;11.68;;
30287;SDS011;17103;48.316;11.558;2023-03-01T08:54:55;18.83;;;12.45;;
30287;SDS011;17103;48.316;11.558;2023-03-01T08:57:22;18.58;;;11.68;;
30287;SDS011;17103;48.316;11.558;2023-03-01T08:59:47;17.17;;;11.68;;
30287;SDS011;17103;48.316;11.558;2023-03-01T09:02:18;18.33;;;11.75;;
30287;SDS011;17103;48.316;11.558;2023-03-01T09:04:44;18.75;;;11.77;;
30287;SDS011;17103;48.316;11.558;2023-03-01T09:07:10;17.67;;;11.38;;
30287;SDS011;17103;48.316;11.558;2023-03-01T09:09:35;18.23;;;12.27;;
30287;SDS011;17103;48.316;11.558;2023-03-01T09:12:02;18.15;;;11.52;;
30287;SDS011;17103;48.316;11.558;2023-03-01T09:14:28;19.38;;;12.60;;
30287;SDS011;17103;48.316;11.558;2023-03-01T09:16:55;21.73;;;11.90;;
30287;SDS011;17103;48.316;11.558;2023-03-01T09:19:21;17.80;;;12.15;;
30287;SDS011;17103;48.316;11.558;2023-03-01T09:21:47;19.20;;;12.45;;
30287;SDS011;17103;48.316;11.558;2023-03-01T09:24:18;19.30;;;12.55;;
30287;SDS011;17103;48.316;11.558;2023-03-01T09:26:45;18.90;;;12.27;;
30287;SDS011;17103;48.316;11.558;2023-03-01T09:29:11;19.33;;;12.80;;
30287;SDS011;17103;48.316;11.558;2023-03-01T09:31:38;16.33;;;11.25;;
30287;SDS011;17103;48.316;11.558;2023-03-01T09:34:04;16.85;;;11.07;;
30287;SDS011;17103;48.316;11.558;2023-03-01T09:36:30;17.58;;;11.88;;
30287;SDS011;17103;48.316;11.558;2023-03-01T09:38:57;19.45;;;11.30;;
30287;SDS011;17103;48.316;11.558;2023-03-01T09:42:05;18.15;;;11.60;;
30287;SDS011;17103;48.316;11.558;2023-03-01T09:44:27;16.92;;;11.65;;
30287;SDS011;17103;48.316;11.558;2023-03-01T09:46:55;18.92;;;12.82;;
30287;SDS011;17103;48.316;11.558;2023-03-01T09:49:26;17.98;;;11.55;;
30287;SDS011;17103;48.316;11.558;2023-03-01T09:51:57;21.73;;;12.10;;
30287;SDS011;17103;48.316;11.558;2023-03-01T09:54:26;17.92;;;11.98;;
30287;SDS011;17103;48.316;11.558;2023-03-01T10:09:58;21.88;;;12.30;;
30287;SDS011;17103;48.316;11.558;2023-03-01T10:12:33;19.08;;;11.85;;
30287;SDS011;17103;48.316;11.558;2023-03-01T10:15:05;20.23;;;12.85;;
30287;SDS011;17103;48.316;11.558;2023-03-01T10:17:48;18.10;;;11.85;;
30287;SDS011;17103;48.316;11.558;2023-03-01T10:20:26;23.08;;;12.85;;
30287;SDS011;17103;48.316;11.558;2023-03-01T10:23:08;18.67;;;12.13;;
30287;SDS011;17103;48.316;11.558;2023-03-01T10:31:01;15.93;;;11.07;;
30287;SDS011;17103;48.316;11.558;2023-03-01T10:33:27;18.02;;;12.15;;
30287;SDS011;17103;48.316;11.558;2023-03-01T10:35:57;17.02;;;12.07;;
30287;SDS011;17103;48.316;11.558;2023-03-01T10:38:24;15.07;;;10.90;;
30287;SDS011;17103;48.316;11.558;2023-03-01T10:40:54;17.02;;;11.13;;
30287;SDS011;17103;48.316;11.558;2023-03-01T10:43:22;16.85;;;12.07;;
30287;SDS011;17103;48.316;11.558;2023-03-01T10:45:49;14.75;;;11.68;;
30287;SDS011;17103;48.316;11.558;2023-03-01T10:48:22;20.23;;;12.93;;
30287;SDS011;17103;48.316;11.558;2023-03-01T10:51:14;16.17;;;11.30;;
30287;SDS011;17103;48.316;11.558;2023-03-01T10:53:47;16.40;;;12.15;;
30287;SDS011;17103;48.316;11.558;2023-03-01T10:56:15;16.50;;;12.23;;
30287;SDS011;17103;48.316;11.558;2023-03-01T10:59:03;16.15;;;11.52;;
30287;SDS011;17103;48.316;11.558;2023-03-01T11:01:45;15.48;;;11.35;;
30287;SDS011;17103;48.316;11.558;2023-03-01T11:04:16;16.17;;;11.98;;
30287;SDS011;17103;48.316;11.558;2023-03-01T11:06:57;15.80;;;11.10;;
30287;SDS011;17103;48.316;11.558;2023-03-01T11:09:24;17.33;;;11.48;;
30287;SDS011;17103;48.316;11.558;2023-03-01T11:11:55;15.10;;;11.40;;
30287;SDS011;17103;48.316;11.558;2023-03-01T11:14:26;15.32;;;10.70;;
30287;SDS011;17103;48.316;11.558;2023-03-01T11:16:58;18.02;;;11.43;;
30287;SDS011;17103;48.316;11.558;2023-03-01T11:19:37;18.33;;;12.02;;
30287;SDS011;17103;48.316;11.558;2023-03-01T11:22:05;19.75;;;12.25;;
30287;SDS011;17103;48.316;11.558;2023-03-01T11:24:39;14.93;;;11.00;;
30287;SDS011;17103;48.316;11.558;2023-03-01T11:27:13;16.98;;;11.40;;
30287;SDS011;17103;48.316;11.558;2023-03-01T11:32:42;16.58;;;12.02;;
30287;SDS011;17103;48.316;11.558;2023-03-01T11:35:14;15.90;;;11.40;;
30287;SDS011;17103;48.316;11.558;2023-03-01T11:37:49;17.23;;;11.70;;
30287;SDS011;17103;48.316;11.558;2023-03-01T11:40:29;18.65;;;12.48;;
30287;SDS011;17103;48.316;11.558;2023-03-01T11:46:08;18.05;;;13.18;;
30287;SDS011;17103;48.316;11.558;2023-03-01T11:48:56;15.90;;;12.35;;
30287;SDS011;17103;48.316;11.558;2023-03-01T11:57:17;15.10;;;10.57;;
30287;SDS011;17103;48.316;11.558;2023-03-01T12:08:33;14.45;;;10.73;;
30287;SDS011;17103;48.316;11.558;2023-03-01T12:13:50;15.02;;;11.52;;
30287;SDS011;17103;48.316;11.558;2023-03-01T12:19:08;16.85;;;12.30;;
30287;SDS011;17103;48.316;11.558;2023-03-01T12:22:09;14.73;;;11.00;;
30287;SDS011;17103;48.316;11.558;2023-03-01T12:30:42;14.25;;;11.00;;
30287;SDS011;17103;48.316;11.558;2023-03-01T12:46:51;13.18;;;10.30;;
30287;SDS011;17103;48.316;11.558;2023-03-01T12:54:57;13.07;;;10.30;;
30287;SDS011;17103;48.316;11.558;2023-03-01T12:57:41;15.43;;;10.80;;
30287;SDS011;17103;48.316;11.558;2023-03-01T13:00:26;14.05;;;10.35;;
30287;SDS011;17103;48.316;11.558;2023-03-01T13:03:01;13.45;;;10.27;;
30287;SDS011;17103;48.316;11.558;2023-03-01T13:05:51;14.25;;;10.30;;
30287;SDS011;17103;48.316;11.558;2023-03-01T13:08:53;14.93;;;9.70;;
30287;SDS011;17103;48.316;11.558;2023-03-01T13:11:25;13.60;;;9.65;;
30287;SDS011;17103;48.316;11.558;2023-03-01T13:13:51;14.13;;;9.07;;
30287;SDS011;17103;48.316;11.558;2023-03-01T13:16:41;13.38;;;9.35;;
30287;SDS011;17103;48.316;11.558;2023-03-01T13:19:16;11.45;;;9.55;;
30287;SDS011;17103;48.316;11.558;2023-03-01T13:21:43;12.25;;;9.40;;
30287;SDS011;17103;48.316;11.558;2023-03-01T13:29:46;13.48;;;9.73;;
30287;SDS011;17103;48.316;11.558;2023-03-01T13:32:20;15.30;;;10.15;;
30287;SDS011;17103;48.316;11.558;2023-03-01T13:37:41;13.85;;;10.25;;
30287;SDS011;17103;48.316;11.558;2023-03-01T13:42:42;13.40;;;10.00;;
30287;SDS011;17103;48.316;11.558;2023-03-01T13:47:59;14.82;;;10.00;;
30287;SDS011;17103;48.316;11.558;2023-03-01T13:50:48;12.82;;;9.55;;
30287;SDS011;17103;48.316;11.558;2023-03-01T13:53:18;14.43;;;9.82;;
30287;SDS011;17103;48.316;11.558;2023-03-01T13:55:46;12.88;;;10.02;;
30287;SDS011;17103;48.316;11.558;2023-03-01T13:58:24;11.45;;;9.02;;
30287;SDS011;17103;48.316;11.558;2023-03-01T14:00:55;11.38;;;9.45;;
30287;SDS011;17103;48.316;11.558;2023-03-01T14:03:21;14.65;;;10.00;;
30287;SDS011;17103;48.316;11.558;2023-03-01T14:06:07;13.43;;;9.40;;
30287;SDS011;17103;48.316;11.558;2023-03-01T14:08:37;13.18;;;8.93;;
30287;SDS011;17103;48.316;11.558;2023-03-01T14:16:41;11.73;;;9.50;;
30287;SDS011;17103;48.316;11.558;2023-03-01T14:21:44;11.02;;;8.80;;
30287;SDS011;17103;48.316;11.558;2023-03-01T14:24:20;12.80;;;9.13;;
30287;SDS011;17103;48.316;11.558;2023-03-01T14:26:51;11.43;;;8.85;;
30287;SDS011;17103;48.316;11.558;2023-03-01T14:29:24;10.45;;;8.98;;
30287;SDS011;17103;48.316;11.558;2023-03-01T14:31:51;11.98;;;8.77;;
30287;SDS011;17103;48.316;11.558;2023-03-01T14:34:26;10.75;;;8.35;;
30287;SDS011;17103;48.316;11.558;2023-03-01T14:36:52;12.65;;;8.77;;
30287;SDS011;17103;48.316;11.558;2023-03-01T14:39:19;14.05;;;8.85;;
30287;SDS011;17103;48.316;11.558;2023-03-01T14:41:48;10.82;;;8.23;;
30287;SDS011;17103;48.316;11.558;2023-03-01T14:44:16;13.73;;;9.50;;
30287;SDS011;17103;48.316;11.558;2023-03-01T14:46:51;11.93;;;8.50;;
30287;SDS011;17103;48.316;11.558;2023-03-01T14:49:19;11.45;;;9.45;;
30287;SDS011;17103;48.316;11.558;2023-03-01T14:57:27;10.38;;;8.30;;
30287;SDS011;17103;48.316;11.558;2023-03-01T14:59:54;10.98;;;8.40;;
30287;SDS011;17103;48.316;11.558;2023-03-01T15:02:24;11.68;;;8.35;;
30287;SDS011;17103;48.316;11.558;2023-03-01T15:04:52;9.23;;;7.45;;
30287;SDS011;17103;48.316;11.558;2023-03-01T15:07:21;10.00;;;8.15;;
30287;SDS011;17103;48.316;11.558;2023-03-01T15:09:51;10.48;;;8.13;;
30287;SDS011;17103;48.316;11.558;2023-03-01T15:14:58;11.18;;;8.38;;
30287;SDS011;17103;48.316;11.558;2023-03-01T15:17:36;12.90;;;7.95;;
30287;SDS011;17103;48.316;11.558;2023-03-01T15:20:04;13.68;;;7.38;;
30287;SDS011;17103;48.316;11.558;2023-03-01T15:22:32;10.90;;;7.55;;
30287;SDS011;17103;48.316;11.558;2023-03-01T15:24:58;11.68;;;7.32;;
30287;SDS011;17103;48.316;11.558;2023-03-01T15:27:24;10.80;;;7.22;;
30287;SDS011;17103;48.316;11.558;2023-03-01T15:29:53;10.80;;;7.90;;
30287;SDS011;17103;48.316;11.558;2023-03-01T15:32:30;10.00;;;7.50;;
30287;SDS011;17103;48.316;11.558;2023-03-01T15:34:58;11.93;;;7.60;;
30287;SDS011;17103;48.316;11.558;2023-03-01T15:37:36;10.25;;;7.47;;
30287;SDS011;17103;48.316;11.558;2023-03-01T15:43:00;11.10;;;7.20;;
30287;SDS011;17103;48.316;11.558;2023-03-01T15:45:28;10.95;;;7.43;;
30287;SDS011;17103;48.316;11.558;2023-03-01T15:47:56;11.50;;;10.05;;
30287;SDS011;17103;48.316;11.558;2023-03-01T15:52:55;34.40;;;22.05;;
30287;SDS011;17103;48.316;11.558;2023-03-01T15:55:22;20.27;;;14.32;;
30287;SDS011;17103;48.316;11.558;2023-03-01T15:58:01;26.48;;;16.10;;
30287;SDS011;17103;48.316;11.558;2023-03-01T16:00:27;16.60;;;11.80;;
30287;SDS011;17103;48.316;11.558;2023-03-01T16:02:54;19.40;;;12.85;;
30287;SDS011;17103;48.316;11.558;2023-03-01T16:05:21;16.75;;;11.13;;
30287;SDS011;17103;48.316;11.558;2023-03-01T16:07:48;10.43;;;7.82;;
30287;SDS011;17103;48.316;11.558;2023-03-01T16:10:14;9.20;;;6.53;;
30287;SDS011;17103;48.316;11.558;2023-03-01T16:12:40;10.00;;;7.13;;
30287;SDS011;17103;48.316;11.558;2023-03-01T16:15:26;7.68;;;5.47;;
30287;SDS011;17103;48.316;11.558;2023-03-01T16:17:56;11.27;;;6.75;;
30287;SDS011;17103;48.316;11.558;2023-03-01T16:20:26;10.57;;;6.90;;
30287;SDS011;17103;48.316;11.558;2023-03-01T16:22:52;8.07;;;6.78;;
30287;SDS011;17103;48.316;11.558;2023-03-01T16:25:19;7.38;;;5.82;;
30287;SDS011;17103;48.316;11.558;2023-03-01T16:27:46;7.53;;;5.43;;
30287;SDS011;17103;48.316;11.558;2023-03-01T16:30:14;7.90;;;5.40;;
30287;SDS011;17103;48.316;11.558;2023-03-01T16:32:42;8.90;;;6.10;;
30287;SDS011;17103;48.316;11.558;2023-03-01T16:35:09;9.38;;;5.50;;